Time;durP1;ratioP1;P1;durP2;ratioP2;P2;SDS_P1;SDS_P2;PMS_P1;PMS_P2;Temp;Humidity;BMP_temperature;BMP_pressure;BME280_temperature;BME280_humidity;BME280_pressure;Samples;Min_cycle;Max_cycle;Signal;HPM_P1;HPM_P2
2024/04/13 00:00:41;;;;;;;;;35.00;33.00;;;;;10.42;100.00;100521.06;6268461;20;2856673;-45
2024/04/13 00:03:08;;;;;;;;;48.50;40.00;;;;;10.37;100.00;100525.78;6269566;20;2850314;-47
2024/04/13 00:05:36;;;;;;;;;66.67;51.00;;;;;10.44;100.00;100517.38;6272757;20;3646104;-47
2024/04/13 00:08:05;;;;;;;;;66.67;50.33;;;;;10.36;100.00;100510.63;6298768;20;3634488;-48
2024/04/13 00:10:35;;;;;;;;;63.00;50.33;;;;;10.03;100.00;100504.06;6301258;20;3616933;-45
2024/04/13 00:13:03;;;;;;;;;60.33;49.33;;;;;10.07;100.00;100512.84;6302268;20;3627401;-46
2024/04/13 00:15:32;;;;;;;;;64.67;49.67;;;;;9.77;100.00;100507.94;6301924;20;3633598;-45
2024/04/13 00:18:00;;;;;;;;;54.00;44.00;;;;;9.71;100.00;100500.16;6299404;20;2862867;-46
2024/04/13 00:20:28;;;;;;;;;45.00;36.00;;;;;9.57;100.00;100499.91;6298708;20;2852392;-47
2024/04/13 00:22:56;;;;;;;;;29.00;26.00;;;;;9.37;100.00;100488.25;6301928;20;3599245;-46
2024/04/13 00:25:23;;;;;;;;;23.00;21.00;;;;;9.18;100.00;100489.97;6271809;20;2838891;-46
2024/04/13 00:27:52;;;;;;;;;24.33;21.00;;;;;9.32;100.00;100492.94;6270993;20;2845089;-47
2024/04/13 00:30:19;;;;;;;;;24.67;24.00;;;;;9.41;100.00;100492.53;6305586;20;3584635;-47
2024/04/13 00:32:48;;;;;;;;;33.00;29.33;;;;;9.80;100.00;100498.88;6273377;20;3615885;-46
2024/04/13 00:35:15;;;;;;;;;32.33;30.00;;;;;10.12;100.00;100494.72;6310635;20;3600276;-47
2024/04/13 00:37:44;;;;;;;;;34.33;31.33;;;;;9.98;100.00;100486.41;6275687;20;2860730;-47
2024/04/13 00:40:11;;;;;;;;;41.00;34.33;;;;;10.07;100.00;100496.75;6311740;20;3602427;-45
2024/04/13 00:42:39;;;;;;;;;36.00;33.00;;;;;9.77;100.00;100485.59;6274540;20;2849246;-46
2024/04/13 00:45:08;;;;;;;;;37.50;34.00;;;;;9.97;100.00;100484.69;6309348;20;3562761;-46
2024/04/13 00:47:36;;;;;;;;;36.33;31.00;;;;;10.14;100.00;100492.84;6308426;20;3594095;-46
2024/04/13 00:50:11;;;;;;;;;31.67;29.67;;;;;9.79;100.00;100491.75;6274412;20;2852421;-46
2024/04/13 00:52:44;;;;;;;;;38.67;35.00;;;;;9.70;100.00;100498.41;6310829;20;3605481;-46
2024/04/13 00:55:15;;;;;;;;;50.00;41.00;;;;;9.75;100.00;100490.19;6276054;20;2850409;-45
2024/04/13 00:57:43;;;;;;;;;44.50;38.00;;;;;10.13;100.00;100495.56;6306494;20;2859652;-48
2024/04/13 01:00:12;;;;;;;;;40.00;34.67;;;;;9.95;100.00;100491.94;6274514;20;2860002;-46
2024/04/13 01:02:44;;;;;;;;;48.67;39.00;;;;;9.50;100.00;100482.34;6306289;20;3592983;-45
2024/04/13 01:05:13;;;;;;;;;50.33;41.00;;;;;9.52;100.00;100481.34;6306445;20;2861800;-49
2024/04/13 01:07:42;;;;;;;;;47.67;41.00;;;;;9.45;100.00;100486.13;6305764;20;2868026;-48
2024/04/13 01:10:16;;;;;;;;;50.00;39.33;;;;;9.48;100.00;100478.84;6307625;20;2865989;-49
2024/04/13 01:12:46;;;;;;;;;48.67;41.00;;;;;9.40;100.00;100484.53;6304624;20;2871105;-48
2024/04/13 01:15:17;;;;;;;;;61.33;48.00;;;;;9.27;100.00;100484.25;6306124;20;3634623;-48
2024/04/13 01:17:46;;;;;;;;;42.00;35.00;;;;;9.02;100.00;100485.28;6310087;20;3608696;-48
2024/04/13 01:20:15;;;;;;;;;37.00;33.00;;;;;9.31;100.00;100495.69;6275154;20;2844231;-47
2024/04/13 01:22:45;;;;;;;;;50.00;38.33;;;;;9.60;100.00;100484.53;6304309;20;3616991;-47
2024/04/13 01:25:15;;;;;;;;;56.00;45.00;;;;;9.48;100.00;100481.53;6307219;20;2869546;-47
2024/04/13 01:27:44;;;;;;;;;64.67;47.00;;;;;9.60;100.00;100486.34;6304787;20;3643026;-47
2024/04/13 01:30:16;;;;;;;;;59.33;48.33;;;;;9.40;100.00;100480.09;6304973;20;3611733;-46
2024/04/13 01:32:44;;;;;;;;;54.67;41.67;;;;;9.85;100.00;100489.69;6305074;20;3607665;-47
2024/04/13 01:35:13;;;;;;;;;38.33;32.33;;;;;10.20;100.00;100492.53;6306308;20;3613264;-45
2024/04/13 01:37:43;;;;;;;;;32.67;28.33;;;;;10.11;100.00;100490.31;6274564;20;3587762;-44
2024/04/13 01:40:11;;;;;;;;;23.67;23.67;;;;;10.09;100.00;100484.13;6307587;20;3575369;-52
2024/04/13 01:42:44;;;;;;;;;20.00;19.00;;;;;10.37;100.00;100488.22;6303307;20;2496309;-46
2024/04/13 01:45:12;;;;;;;;;20.00;20.00;;;;;10.16;100.00;100490.94;6276138;20;2821129;-44
2024/04/13 01:47:39;;;;;;;;;19.50;19.50;;;;;10.31;100.00;100489.38;6272788;20;2825398;-45
2024/04/13 01:50:07;;;;;;;;;21.50;21.00;;;;;10.04;100.00;100481.66;6272360;20;2846157;-50
2024/04/13 01:52:35;;;;;;;;;20.50;17.50;;;;;10.06;100.00;100484.28;6272912;20;2821274;-45
2024/04/13 01:55:04;;;;;;;;;22.00;21.00;;;;;9.95;100.00;100483.88;6267658;20;2496126;-46
2024/04/13 01:57:32;;;;;;;;;18.00;18.00;;;;;9.86;100.00;100482.50;6270389;20;2500410;-46
2024/04/13 01:59:59;;;;;;;;;24.00;20.00;;;;;9.61;100.00;100477.38;6271518;20;2836770;-48
2024/04/13 02:02:26;;;;;;;;;21.00;18.00;;;;;9.70;100.00;100474.28;6271273;20;2500282;-47
2024/04/13 02:04:53;;;;;;;;;21.33;20.67;;;;;9.40;100.00;100468.47;6274587;20;3568025;-45
2024/04/13 02:07:22;;;;;;;;;22.50;20.00;;;;;9.34;100.00;100468.75;6275112;20;2825380;-46
2024/04/13 02:09:49;;;;;;;;;20.00;20.00;;;;;9.70;100.00;100474.28;6270856;20;2826319;-51
2024/04/13 02:12:18;;;;;;;;;32.00;26.00;;;;;9.52;100.00;100469.75;6273187;20;2851319;-46
2024/04/13 02:14:46;;;;;;;;;30.33;26.33;;;;;9.80;100.00;100472.06;6274601;20;2856618;-45
2024/04/13 02:17:14;;;;;;;;;34.67;29.00;;;;;9.17;100.00;100466.81;6302150;20;3612751;-47
2024/04/13 02:19:42;;;;;;;;;27.00;27.00;;;;;8.94;100.00;100465.97;6303147;20;2791958;-45
2024/04/13 02:22:15;;;;;;;;;31.67;27.00;;;;;8.88;100.00;100468.94;6272951;20;3608609;-47
2024/04/13 02:24:46;;;;;;;;;25.00;23.50;;;;;8.83;100.00;100473.59;6302236;20;2842976;-45
2024/04/13 02:27:14;;;;;;;;;69.00;53.67;;;;;8.47;100.00;100468.81;6272984;20;3625271;-46
2024/04/13 02:29:43;;;;;;;;;70.67;52.33;;;;;8.78;100.00;100464.88;6303186;20;3639872;-45
2024/04/13 02:32:11;;;;;;;;;67.00;48.00;;;;;9.10;100.00;100470.69;6301832;20;3651335;-46
2024/04/13 02:34:40;;;;;;;;;59.67;47.33;;;;;8.68;100.00;100468.88;6269133;20;3623243;-45
2024/04/13 02:37:09;;;;;;;;;64.33;48.33;;;;;8.86;100.00;100468.09;6303946;20;3640413;-46
2024/04/13 02:39:37;;;;;;;;;55.00;45.67;;;;;8.85;100.00;100465.53;6304033;20;2855475;-46
2024/04/13 02:42:06;;;;;;;;;53.33;43.67;;;;;8.56;100.00;100460.41;6303117;20;2863971;-46
2024/04/13 02:44:34;;;;;;;;;47.33;39.00;;;;;8.39;100.00;100464.69;6305894;20;3575334;-45
2024/04/13 02:47:02;;;;;;;;;49.00;40.00;;;;;8.43;100.00;100469.88;6271179;20;2877549;-45
2024/04/13 02:49:30;;;;;;;;;46.67;40.67;;;;;8.33;100.00;100468.47;6304463;20;2871683;-45
2024/04/13 02:51:59;;;;;;;;;84.67;64.00;;;;;9.13;100.00;100468.72;6300610;20;3673171;-45
2024/04/13 02:54:27;;;;;;;;;62.33;49.00;;;;;8.98;100.00;100470.28;6271445;20;3611734;-45
2024/04/13 02:56:55;;;;;;;;;41.00;37.00;;;;;9.30;100.00;100472.50;6308519;20;3604553;-47
2024/04/13 02:59:23;;;;;;;;;39.67;35.00;;;;;9.39;100.00;100481.00;6270203;20;2868872;-46
2024/04/13 03:01:49;;;;;;;;;12.00;10.50;;;;;9.61;100.00;100485.41;6308586;20;2792041;-46
2024/04/13 03:04:18;;;;;;;;;30.67;26.67;;;;;9.23;100.00;100474.56;6270834;20;3604413;-47
2024/04/13 03:06:46;;;;;;;;;34.00;24.67;;;;;9.29;100.00;100479.66;6303553;20;2865972;-47
2024/04/13 03:09:14;;;;;;;;;25.50;23.50;;;;;9.73;100.00;100484.88;6300076;20;2839873;-46
2024/04/13 03:11:41;;;;;;;;;25.50;22.50;;;;;9.83;100.00;100483.50;6271999;20;2834660;-48
2024/04/13 03:14:08;;;;;;;;;26.00;22.00;;;;;9.78;100.00;100492.72;6273298;20;2562810;-48
2024/04/13 03:16:35;;;;;;;;;24.00;21.50;;;;;9.59;100.00;100487.31;6272655;20;2850347;-48
2024/04/13 03:19:04;;;;;;;;;26.33;23.33;;;;;9.45;100.00;100488.78;6265604;20;2852372;-45
2024/04/13 03:21:30;;;;;;;;;20.50;20.00;;;;;9.80;100.00;100494.38;6301458;20;2500466;-46
2024/04/13 03:23:57;;;;;;;;;22.00;20.00;;;;;9.96;100.00;100488.31;6269854;20;2477436;-50
2024/04/13 03:26:25;;;;;;;;;11.20;10.80;;;;;10.06;100.00;100495.00;6297203;20;2794096;-52
2024/04/13 03:28:52;;;;;;;;;20.50;20.50;;;;;9.72;100.00;100490.31;6269898;20;2498200;-51
2024/04/13 03:31:22;;;;;;;;;21.67;19.00;;;;;9.43;100.00;100493.34;6272049;20;2830523;-52
2024/04/13 03:33:50;;;;;;;;;43.67;36.33;;;;;9.30;100.00;100489.47;6302843;20;3605474;-50
2024/04/13 03:36:17;;;;;;;;;57.50;45.00;;;;;8.67;100.00;100489.44;6270759;20;2868008;-48
2024/04/13 03:38:47;;;;;;;;;56.00;42.33;;;;;8.96;100.00;100490.03;6268587;20;2870300;-46
2024/04/13 03:41:16;;;;;;;;;51.33;40.33;;;;;8.87;100.00;100485.91;6302182;20;2855581;-50
2024/04/13 03:43:44;;;;;;;;;50.33;43.33;;;;;8.84;100.00;100483.38;6301472;20;2854632;-47
2024/04/13 03:46:12;;;;;;;;;42.67;35.33;;;;;8.48;100.00;100493.78;6304999;20;3613884;-49
2024/04/13 03:48:42;;;;;;;;;25.00;23.00;;;;;7.44;100.00;100501.22;6269722;20;2847243;-46
2024/04/13 03:51:10;;;;;;;;;19.00;19.00;;;;;7.17;100.00;100493.25;6273024;20;3559656;-47
2024/04/13 03:53:38;;;;;;;;;23.33;21.67;;;;;7.53;100.00;100497.34;6272590;20;3570080;-49
2024/04/13 03:56:06;;;;;;;;;26.00;25.00;;;;;8.23;100.00;100497.38;6273357;20;2843140;-52
2024/04/13 03:58:34;;;;;;;;;28.00;24.50;;;;;8.14;100.00;100501.28;6271402;20;2848167;-47
2024/04/13 04:01:02;;;;;;;;;56.33;45.67;;;;;8.58;100.00;100508.53;6270560;20;2858610;-50
2024/04/13 04:03:30;;;;;;;;;50.50;42.00;;;;;8.57;100.00;100514.81;6304384;20;2851403;-47
2024/04/13 04:05:58;;;;;;;;;38.67;33.33;;;;;8.60;100.00;100520.03;6275945;20;2857647;-51
2024/04/13 04:08:27;;;;;;;;;29.00;28.00;;;;;8.82;100.00;100514.72;6309163;20;2854552;-47
2024/04/13 04:10:54;;;;;;;;;38.33;30.67;;;;;8.63;100.00;100513.69;6313288;20;3592024;-46
2024/04/13 04:13:26;;;;;;;;;30.00;28.67;;;;;8.41;100.00;100511.88;6275245;20;2854642;-46
2024/04/13 04:15:53;;;;;;;;;31.33;26.33;;;;;8.52;100.00;100523.03;6312838;20;3606525;-46
2024/04/13 04:18:21;;;;;;;;;26.67;25.67;;;;;8.54;100.00;100518.50;6274459;20;3600247;-46
2024/04/13 04:20:49;;;;;;;;;29.00;24.00;;;;;8.76;100.00;100513.13;6310289;20;2724233;-45
2024/04/13 04:23:17;;;;;;;;;24.50;24.00;;;;;8.72;100.00;100516.03;6307430;20;2842001;-48
2024/04/13 04:25:44;;;;;;;;;28.50;26.50;;;;;8.94;100.00;100513.31;6276420;20;2848175;-49
2024/04/13 04:28:12;;;;;;;;;25.50;23.50;;;;;9.11;100.00;100517.97;6277560;20;2841128;-49
2024/04/13 04:30:39;;;;;;;;;25.00;25.00;;;;;9.09;100.00;100530.56;6278507;20;3582540;-48
2024/04/13 04:33:07;;;;;;;;;25.33;25.33;;;;;9.02;100.00;100528.13;6310683;20;3577466;-51
2024/04/13 04:35:37;;;;;;;;;31.00;27.33;;;;;9.26;100.00;100522.66;6274150;20;2863674;-48
2024/04/13 04:38:04;;;;;;;;;20.00;18.67;;;;;9.21;100.00;100522.00;6311846;20;3560808;-49
2024/04/13 04:40:34;;;;;;;;;23.00;23.00;;;;;9.47;100.00;100515.50;6307855;20;2852805;-47
2024/04/13 04:43:01;;;;;;;;;27.00;25.00;;;;;9.65;100.00;100522.75;6277818;20;2840941;-45
2024/04/13 04:45:29;;;;;;;;;24.50;24.50;;;;;9.54;100.00;100524.19;6276539;20;2842528;-46
2024/04/13 04:47:57;;;;;;;;;24.50;23.00;;;;;9.85;100.00;100526.38;6277400;20;2844182;-47
2024/04/13 04:50:24;;;;;;;;;23.50;21.50;;;;;9.80;100.00;100531.94;6276634;20;2858722;-44
2024/04/13 04:52:52;;;;;;;;;29.67;26.00;;;;;11.40;100.00;100543.97;6278192;20;3597255;-45
2024/04/13 04:55:19;;;;;;;;;45.00;38.50;;;;;11.31;98.44;100541.75;6277701;20;2846269;-48
2024/04/13 04:57:48;;;;;;;;;63.67;48.67;;;;;10.84;100.00;100538.75;6277767;20;3638851;-45
2024/04/13 05:00:16;;;;;;;;;58.67;46.33;;;;;11.44;100.00;100547.38;6307729;20;3631174;-46
2024/04/13 05:02:44;;;;;;;;;31.67;29.67;;;;;11.91;97.25;100544.06;6310809;20;3595017;-47
2024/04/13 05:05:12;;;;;;;;;27.00;23.00;;;;;11.81;98.03;100545.47;6273899;20;3598163;-47
2024/04/13 05:07:39;;;;;;;;;23.00;21.33;;;;;12.82;92.43;100555.22;6309472;20;3583577;-48
2024/04/13 05:10:10;;;;;;;;;25.00;23.67;;;;;12.40;93.34;100554.84;6275277;20;2853571;-50
2024/04/13 05:12:38;;;;;;;;;26.00;24.00;;;;;12.50;94.27;100552.50;6308838;20;3592019;-50
2024/04/13 05:15:06;;;;;;;;;21.00;20.00;;;;;12.58;91.92;100557.47;6274384;20;2850305;-46
2024/04/13 05:17:34;;;;;;;;;20.33;18.00;;;;;12.69;92.27;100560.41;6276839;20;3562764;-50
2024/04/13 05:20:01;;;;;;;;;21.50;20.00;;;;;12.61;93.22;100557.28;6306984;20;2837802;-47
2024/04/13 05:22:29;;;;;;;;;21.67;20.67;;;;;12.77;92.73;100558.19;6279401;20;3575422;-47
2024/04/13 05:24:56;;;;;;;;;25.33;24.33;;;;;13.04;91.64;100560.25;6309667;20;3586786;-49
2024/04/13 05:27:24;;;;;;;;;15.00;15.00;;;;;13.17;91.19;100561.28;6275263;20;2500255;-47
2024/04/13 05:29:53;;;;;;;;;18.00;16.50;;;;;13.69;88.38;100554.63;6274907;20;2824237;-46
2024/04/13 05:32:21;;;;;;;;;20.00;18.50;;;;;13.71;87.81;100561.66;6275436;20;2833684;-47
2024/04/13 05:34:49;;;;;;;;;16.67;15.33;;;;;13.80;87.05;100555.72;6277192;20;3550280;-46
2024/04/13 05:37:16;;;;;;;;;18.33;16.67;;;;;13.89;87.10;100554.28;6276373;20;2829488;-47
2024/04/13 05:39:43;;;;;;;;;16.00;16.00;;;;;14.10;86.60;100565.59;6306029;20;2824222;-45
2024/04/13 05:42:11;;;;;;;;;16.00;16.00;;;;;15.13;81.85;100575.25;6274087;20;3561720;-47
2024/04/13 05:44:38;;;;;;;;;13.67;13.67;;;;;16.00;76.02;100566.59;6276451;20;3524342;-47
2024/04/13 05:47:06;;;;;;;;;13.00;13.00;;;;;19.25;62.01;100581.59;6311463;20;2786947;-46
2024/04/13 05:49:33;;;;;;;;;21.50;17.00;;;;;18.27;62.41;100575.94;6272218;20;2483602;-47
2024/04/13 05:52:00;;;;;;;;;14.33;14.33;;;;;16.88;70.10;100569.34;6275238;20;3537760;-48
2024/04/13 05:54:27;;;;;;;;;14.00;14.00;;;;;16.15;72.20;100561.94;6278288;20;2804578;-46
2024/04/13 05:56:54;;;;;;;;;13.50;13.50;;;;;16.04;76.18;100566.41;6275680;20;2487798;-50
2024/04/13 05:59:21;;;;;;;;;16.67;14.00;;;;;16.38;76.20;100565.75;6272755;20;3546296;-48
2024/04/13 06:01:48;;;;;;;;;17.00;14.00;;;;;16.34;76.70;100564.22;6274169;20;2626449;-46
2024/04/13 06:04:14;;;;;;;;;13.00;13.00;;;;;16.07;78.63;100567.03;6268674;20;2492037;-48
2024/04/13 06:06:42;;;;;;;;;13.00;13.00;;;;;16.00;76.52;100566.59;6272595;20;3532639;-47
2024/04/13 06:09:09;;;;;;;;;12.00;10.50;;;;;16.22;74.60;100573.25;6308057;20;2788935;-47
2024/04/13 06:11:35;;;;;;;;;12.50;11.00;;;;;16.42;74.92;100588.06;6278008;20;2796897;-51
2024/04/13 06:14:02;;;;;;;;;12.00;11.00;;;;;16.74;74.04;100585.72;6279851;20;2789882;-45
2024/04/13 06:16:29;;;;;;;;;14.00;12.00;;;;;17.03;72.48;100583.63;6276133;20;3534636;-46
2024/04/13 06:18:56;;;;;;;;;11.00;11.00;;;;;17.11;71.97;100585.75;6276271;20;2796152;-46
2024/04/13 06:21:23;;;;;;;;;11.67;10.33;;;;;17.34;71.28;100587.63;6274838;20;3516933;-51
2024/04/13 06:23:51;;;;;;;;;9.67;9.00;;;;;17.67;69.60;100587.91;6305034;20;2754489;-51
2024/04/13 06:26:17;;;;;;;;;9.50;9.50;;;;;17.64;70.32;100588.13;6311774;20;2763891;-48
2024/04/13 06:28:46;;;;;;;;;12.80;10.60;;;;;17.89;69.10;100588.00;6300081;20;2786754;-46
2024/04/13 06:31:13;;;;;;;;;12.67;9.33;;;;;18.08;68.46;100595.56;6276757;20;2780571;-46
2024/04/13 06:33:39;;;;;;;;;9.00;9.00;;;;;18.23;68.32;100595.38;6314564;20;2745077;-46
2024/04/13 06:36:06;;;;;;;;;9.00;9.00;;;;;18.47;66.99;100604.28;6280628;20;2744079;-46
2024/04/13 06:38:34;;;;;;;;;8.80;8.80;;;;;18.53;66.20;100603.78;6301841;20;2741971;-46
2024/04/13 06:41:03;;;;;;;;;9.80;9.80;;;;;18.77;65.72;100605.53;6332924;20;2784157;-49
2024/04/13 06:43:30;;;;;;;;;7.00;7.00;;;;;19.11;64.71;100614.53;6278558;20;2748214;-45
2024/04/13 06:46:00;;;;;;;;;9.00;7.14;;;;;19.19;64.15;100605.72;6320138;20;3437847;-48
2024/04/13 06:48:28;;;;;;;;;9.50;8.00;;;;;18.92;65.87;100604.28;6313982;20;2754503;-47
2024/04/13 06:50:55;;;;;;;;;10.50;8.50;;;;;19.26;64.39;100604.22;6280541;20;2773210;-47
2024/04/13 06:53:23;;;;;;;;;8.40;8.40;;;;;19.74;64.83;100606.56;6302251;20;2744123;-48
2024/04/13 06:55:50;;;;;;;;;8.33;8.00;;;;;19.78;64.84;100602.59;6309223;20;2740950;-47
2024/04/13 06:58:23;;;;;;;;;7.00;7.00;;;;;19.78;62.82;100608.03;6332774;20;2746734;-52
2024/04/13 07:00:57;;;;;;;;;7.60;7.60;;;;;19.79;62.26;100609.75;6302112;20;2742020;-51
2024/04/13 07:03:25;;;;;;;;;6.67;6.67;;;;;20.65;60.65;100607.75;6284462;20;2729424;-50
2024/04/13 07:06:02;;;;;;;;;7.33;7.33;;;;;20.58;59.91;100612.03;6307325;20;2740901;-44
2024/04/13 07:08:30;;;;;;;;;6.00;6.00;;;;;20.95;58.33;100615.03;6333594;20;2735702;-48
2024/04/13 07:10:59;;;;;;;;;8.00;7.67;;;;;20.68;59.04;100610.22;6307529;20;2754487;-46
2024/04/13 07:13:28;;;;;;;;;9.00;9.00;;;;;21.01;58.29;100609.03;6333649;20;2754453;-49
2024/04/13 07:15:56;;;;;;;;;7.00;7.00;;;;;21.38;58.72;100613.00;6308559;20;2731615;-45
2024/04/13 07:18:25;;;;;;;;;7.00;7.00;;;;;21.24;58.04;100606.94;6333283;20;2735702;-49
2024/04/13 07:20:53;;;;;;;;;6.00;6.00;;;;;21.59;58.00;100600.13;6333695;20;2742030;-48
2024/04/13 07:23:21;;;;;;;;;5.60;4.80;;;;;21.90;56.00;100606.28;6300587;20;2728483;-49
2024/04/13 07:26:00;;;;;;;;;8.60;7.20;;;;;22.06;55.18;100604.81;6331447;20;2729442;-50
2024/04/13 07:28:30;;;;;;;;;8.00;6.80;;;;;22.15;53.53;100603.97;6329181;20;2731543;-48
2024/04/13 07:30:59;;;;;;;;;8.00;6.60;;;;;22.74;52.43;100612.88;6331245;20;2742031;-50
2024/04/13 07:33:27;;;;;;;;;7.00;7.00;;;;;22.43;54.73;100609.53;6301579;20;2745686;-52
2024/04/13 07:35:56;;;;;;;;;5.00;5.00;;;;;22.81;53.25;100616.75;6301171;20;2748241;-47
2024/04/13 07:38:26;;;;;;;;;7.20;7.20;;;;;23.31;50.76;100613.63;6296351;20;2739931;-48
2024/04/13 07:40:54;;;;;;;;;5.00;5.00;;;;;22.64;51.52;100614.78;6330011;20;2744059;-52
2024/04/13 07:43:23;;;;;;;;;6.20;6.20;;;;;23.40;51.35;100620.91;6332976;20;2730490;-52
2024/04/13 07:45:52;;;;;;;;;8.60;6.00;;;;;23.58;50.04;100614.59;6330176;20;2745068;-47
2024/04/13 07:48:20;;;;;;;;;4.80;4.80;;;;;23.50;50.32;100620.00;6301271;20;2735718;-47
2024/04/13 07:50:48;;;;;;;;;5.20;5.20;;;;;24.39;48.53;100619.94;6299888;20;2739849;-47
2024/04/13 07:53:17;;;;;;;;;5.20;5.20;;;;;24.28;48.40;100615.56;6301727;20;2745113;-57
2024/04/13 07:55:44;;;;;;;;;7.00;5.67;;;;;23.98;47.42;100608.63;6281291;20;2739859;-48
2024/04/13 07:58:13;;;;;;;;;4.40;4.40;;;;;24.13;46.84;100608.94;6327985;20;2751350;-49
2024/04/13 08:00:41;;;;;;;;;3.80;2.80;;;;;24.35;45.75;100612.19;6301366;20;2743082;-48
2024/04/13 08:03:10;;;;;;;;;5.20;5.20;;;;;24.30;46.60;100610.78;6301160;20;2748226;-47
2024/04/13 08:05:37;;;;;;;;;4.67;4.67;;;;;24.55;42.84;100600.00;6277431;20;2739974;-50
2024/04/13 08:08:05;;;;;;;;;4.00;4.00;;;;;24.82;42.22;100598.94;6307066;20;2756524;-53
2024/04/13 08:10:39;;;;;;;;;4.00;4.00;;;;;23.98;43.20;100602.31;6329054;20;2745093;-46
2024/04/13 08:13:07;;;;;;;;;3.80;3.80;;;;;24.47;42.15;100594.47;6300141;20;2747207;-49
2024/04/13 08:15:41;;;;;;;;;5.67;5.67;;;;;24.42;40.73;100585.81;6274932;20;2746128;-48
2024/04/13 08:18:10;;;;;;;;;4.00;4.00;;;;;23.92;40.97;100586.47;6330519;20;2750300;-49
2024/04/13 08:20:39;;;;;;;;;5.40;4.20;;;;;23.56;42.64;100586.47;6299659;20;2739852;-48
2024/04/13 08:23:08;;;;;;;;;3.60;3.60;;;;;24.41;42.29;100589.56;6329491;20;2746267;-52
2024/04/13 08:25:36;;;;;;;;;5.40;3.00;;;;;24.34;41.93;100577.53;6305807;20;2740025;-48
2024/04/13 08:28:05;;;;;;;;;5.00;3.00;;;;;24.26;40.30;100584.69;6329125;20;2747237;-50
2024/04/13 08:30:37;;;;;;;;;3.60;3.40;;;;;24.19;39.22;100585.47;6297433;20;2731542;-49
2024/04/13 08:33:05;;;;;;;;;6.67;6.67;;;;;24.31;38.98;100584.22;6275144;20;2732562;-48
2024/04/13 08:35:33;;;;;;;;;5.20;4.80;;;;;25.06;37.63;100581.69;6332493;20;2744144;-46
2024/04/13 08:38:00;;;;;;;;;6.67;6.00;;;;;25.18;38.96;100585.03;6275153;20;2737897;-50
2024/04/13 08:40:28;;;;;;;;;10.00;5.00;;;;;24.97;38.17;100575.28;6304744;20;2757643;-51
2024/04/13 08:43:03;;;;;;;;;4.60;4.60;;;;;24.44;40.01;100567.31;6330131;20;2743179;-48
2024/04/13 08:45:32;;;;;;;;;6.80;5.00;;;;;24.98;38.02;100570.66;6298986;20;2744116;-45
2024/04/13 08:48:02;;;;;;;;;4.00;4.00;;;;;25.46;38.22;100577.38;6300615;20;2737783;-45
2024/04/13 08:50:32;;;;;;;;;4.40;4.40;;;;;26.05;38.21;100577.25;6302563;20;2740376;-54
2024/04/13 08:53:00;;;;;;;;;3.00;3.00;;;;;25.86;36.76;100569.31;6280234;20;2745070;-49
2024/04/13 08:55:28;;;;;;;;;12.33;8.00;;;;;25.79;37.30;100577.38;6308665;20;2773262;-53
2024/04/13 08:57:59;;;;;;;;;6.20;6.20;;;;;25.21;36.68;100570.94;6334750;20;2741977;-52
2024/04/13 09:00:28;;;;;;;;;5.00;5.00;;;;;26.13;35.56;100579.13;6304238;20;2740077;-47
2024/04/13 09:02:56;;;;;;;;;4.67;4.00;;;;;25.77;34.24;100576.69;6281058;20;2743041;-47
2024/04/13 09:05:28;;;;;;;;;3.40;2.60;;;;;25.92;33.72;100569.50;6335658;20;2741945;-48
2024/04/13 09:07:56;;;;;;;;;7.00;4.00;;;;;25.91;34.19;100567.78;6282582;20;2735698;-45
2024/04/13 09:10:25;;;;;;;;;2.60;2.60;;;;;26.40;34.42;100562.19;6333663;20;2729430;-46
2024/04/13 09:12:52;;;;;;;;;7.33;6.00;;;;;26.35;34.94;100559.09;6310063;20;2740911;-45
2024/04/13 09:15:21;;;;;;;;;4.20;4.00;;;;;25.67;34.24;100560.34;6335797;20;2736121;-44
2024/04/13 09:17:49;;;;;;;;;6.60;3.40;;;;;26.03;34.71;100551.78;6300776;20;2745109;-48
2024/04/13 09:20:20;;;;;;;;;1.00;1.00;;;;;26.27;33.98;100562.75;6305343;20;2742034;-44
2024/04/13 09:22:49;;;;;;;;;2.00;2.00;;;;;26.18;33.38;100552.78;6336545;20;2726708;-45
2024/04/13 09:25:22;;;;;;;;;5.00;2.20;;;;;26.24;31.80;100552.06;6335361;20;2746210;-46
2024/04/13 09:28:02;;;;;;;;;4.40;3.00;;;;;26.57;31.85;100548.41;6301292;20;2757211;-51
2024/04/13 09:30:30;;;;;;;;;4.00;2.00;;;;;26.83;31.72;100554.53;6272484;20;2748382;-49
2024/04/13 09:33:06;;;;;;;;;2.80;2.80;;;;;26.30;31.78;100553.28;6334090;20;2750281;-46
2024/04/13 09:35:35;;;;;;;;;1.00;1.00;;;;;26.18;30.54;100551.94;6278198;20;2748193;-46
2024/04/13 09:38:03;;;;;;;;;2.40;2.40;;;;;26.30;31.29;100549.66;6332964;20;2733689;-46
2024/04/13 09:40:32;;;;;;;;;2.80;2.20;;;;;26.59;30.92;100549.09;6334745;20;2746184;-49
2024/04/13 09:43:00;;;;;;;;;4.00;3.00;;;;;25.93;32.46;100540.09;6301545;20;2756566;-46
2024/04/13 09:45:28;;;;;;;;;2.20;2.20;;;;;26.26;33.01;100538.16;6301740;20;2751354;-47
2024/04/13 09:47:59;;;;;;;;;2.20;2.00;;;;;26.25;32.91;100542.81;6302813;20;2729484;-46
2024/04/13 09:50:28;;;;;;;;;2.40;2.40;;;;;26.19;33.31;100531.63;6334590;20;2746161;-49
2024/04/13 09:53:01;;;;;;;;;3.00;2.60;;;;;26.46;33.75;100533.97;6302453;20;2752512;-46
2024/04/13 09:55:29;;;;;;;;;3.67;2.67;;;;;26.10;33.83;100527.19;6278929;20;2755522;-48
2024/04/13 09:57:58;;;;;;;;;4.00;3.00;;;;;26.34;34.17;100527.13;6332502;20;2747344;-47
2024/04/13 10:00:27;;;;;;;;;4.00;4.00;;;;;26.31;34.28;100516.47;6302002;20;2740518;-47
2024/04/13 10:02:55;;;;;;;;;3.60;3.00;;;;;26.49;33.54;100519.84;6331562;20;2751382;-49
2024/04/13 10:05:28;;;;;;;;;4.60;3.40;;;;;26.61;32.87;100520.34;6301335;20;2747152;-47
2024/04/13 10:08:30;;;;;;;;;2.80;2.00;;;;;26.54;33.60;100518.47;6299643;20;2752408;-45
2024/04/13 10:11:02;;;;;;;;;3.50;2.00;;;;;26.28;33.78;100519.56;6307981;20;2737805;-47
2024/04/13 10:13:40;;;;;;;;;4.80;3.60;;;;;26.87;32.86;100514.53;6304237;20;2742997;-46
2024/04/13 10:16:09;;;;;;;;;2.40;2.40;;;;;27.06;32.20;100520.63;6302710;20;2733641;-47
2024/04/13 10:18:38;;;;;;;;;3.00;3.00;;;;;26.59;32.87;100516.03;6330204;20;2745111;-47
2024/04/13 10:21:07;;;;;;;;;2.00;2.00;;;;;26.73;32.83;100509.78;6299677;20;2740031;-46
2024/04/13 10:23:45;;;;;;;;;3.00;3.00;;;;;26.72;33.21;100505.31;6332811;20;2741021;-47
2024/04/13 10:26:24;;;;;;;;;3.00;3.00;;;;;26.98;33.07;100505.00;6276853;20;2753452;-45
2024/04/13 10:29:02;;;;;;;;;3.00;3.00;;;;;26.65;32.97;100504.31;6307766;20;2746564;-45
2024/04/13 10:31:33;;;;;;;;;6.40;3.40;;;;;26.86;33.00;100496.28;6331302;20;2749236;-46
2024/04/13 10:34:01;;;;;;;;;8.33;3.00;;;;;26.78;33.02;100492.69;6276480;20;2753420;-46
2024/04/13 10:36:33;;;;;;;;;1.00;1.00;;;;;26.34;32.81;100479.44;6327211;20;2740920;-48
2024/04/13 10:39:03;;;;;;;;;2.00;2.00;;;;;26.66;33.15;100490.34;6295745;20;2735777;-51
2024/04/13 10:41:36;;;;;;;;;2.00;2.00;;;;;26.90;33.00;100491.25;6300948;20;2744168;-46
2024/04/13 10:44:07;;;;;;;;;2.20;1.40;;;;;27.22;32.84;100487.47;6301278;20;2723267;-48
2024/04/13 10:46:36;;;;;;;;;2.40;2.40;;;;;27.13;31.99;100491.31;6333861;20;2734762;-48
2024/04/13 10:49:04;;;;;;;;;1.20;1.20;;;;;26.23;32.78;100472.44;6300827;20;2741965;-48
2024/04/13 10:51:33;;;;;;;;;2.40;2.40;;;;;26.40;32.70;100476.81;6299598;20;2736775;-46
2024/04/13 10:54:01;;;;;;;;;1.00;1.00;;;;;26.76;33.14;100476.38;6332015;20;2750371;-49
2024/04/13 10:56:29;;;;;;;;;1.20;1.20;;;;;26.95;32.52;100475.03;6299051;20;2739865;-49
2024/04/13 10:58:58;;;;;;;;;1.80;1.80;;;;;27.05;32.77;100466.53;6299658;20;2734718;-49
2024/04/13 11:01:26;;;;;;;;;1.40;1.40;;;;;27.30;32.80;100464.47;6300390;20;2735739;-47
2024/04/13 11:04:05;;;;;;;;;0.40;0.40;;;;;26.82;33.03;100461.84;6300892;20;2735698;-51
2024/04/13 11:06:33;;;;;;;;;2.40;2.00;;;;;27.15;32.29;100467.16;6300079;20;2750253;-54